createdAt,value
2019-03-05T00:01:23.919Z,6.43
2019-03-05T00:03:54.714Z,6.49
2019-03-05T00:06:25.494Z,6.52
2019-03-05T00:08:56.275Z,6.48
2019-03-05T00:11:26.997Z,6.45
2019-03-05T00:13:57.976Z,6.45
2019-03-05T00:16:28.742Z,6.48
2019-03-05T00:18:59.597Z,6.55
2019-03-05T00:21:30.304Z,6.63
2019-03-05T00:24:38.919Z,6.66
2019-03-05T00:27:09.704Z,6.74
2019-03-05T00:30:30.054Z,6.72
2019-03-05T00:33:26.841Z,6.72
2019-03-05T00:36:20.730Z,6.68
2019-03-05T00:39:19.818Z,6.64
2019-03-05T00:42:29.313Z,6.72
2019-03-05T00:45:27.408Z,6.65
2019-03-05T00:48:38.734Z,6.64
2019-03-05T00:51:49.698Z,6.64
2019-03-05T00:54:50.591Z,6.64
2019-03-05T00:57:46.257Z,6.62
2019-03-05T01:01:28.339Z,6.55
2019-03-05T01:04:30.027Z,6.49
2019-03-05T01:07:01.140Z,6.36
2019-03-05T01:09:32.082Z,6.33
2019-03-05T01:12:02.840Z,6.21
2019-03-05T01:14:34.078Z,6.10
2019-03-05T01:17:06.768Z,6.15
2019-03-05T01:19:37.609Z,6.09
2019-03-05T01:22:08.491Z,6.03
2019-03-05T01:24:39.380Z,6.02
2019-03-05T01:27:10.281Z,6.11
2019-03-05T01:29:41.381Z,6.13
2019-03-05T01:32:31.465Z,6.18
2019-03-05T01:35:15.818Z,6.18
2019-03-05T01:37:46.702Z,6.17
2019-03-05T01:40:45.622Z,6.22
2019-03-05T01:43:17.490Z,6.13
2019-03-05T01:45:48.443Z,6.06
2019-03-05T01:48:19.952Z,6.05
2019-03-05T01:50:50.812Z,6.13
2019-03-05T01:53:21.431Z,6.09
2019-03-05T01:55:52.197Z,6.10
2019-03-05T01:58:22.992Z,6.11
2019-03-05T02:00:53.883Z,6.08
2019-03-05T02:03:24.913Z,6.15
2019-03-05T02:05:55.873Z,6.25
2019-03-05T02:08:26.747Z,6.34
2019-03-05T02:10:57.789Z,6.35
2019-03-05T02:13:28.618Z,6.39
2019-03-05T02:15:59.386Z,6.46
2019-03-05T02:18:30.386Z,6.50
2019-03-05T02:21:01.260Z,6.48
2019-03-05T02:23:40.933Z,6.48
2019-03-05T02:26:47.454Z,6.51
2019-03-05T02:29:42.216Z,6.50
2019-03-05T02:32:55.622Z,6.41
2019-03-05T02:35:51.574Z,6.44
2019-03-05T02:38:58.525Z,6.48
2019-03-05T02:42:05.962Z,6.42
2019-03-05T02:45:03.308Z,6.45
2019-03-05T02:48:13.880Z,6.45
2019-03-05T02:51:27.075Z,6.48
2019-03-05T02:54:29.914Z,6.50
2019-03-05T02:57:08.252Z,6.49
2019-03-05T02:59:39.641Z,6.49
2019-03-05T03:02:30.120Z,6.45
2019-03-05T03:05:34.581Z,6.52
2019-03-05T03:08:05.345Z,6.51
2019-03-05T03:10:36.239Z,6.53
2019-03-05T03:13:07.115Z,6.53
2019-03-05T03:15:37.873Z,6.47
2019-03-05T03:18:08.580Z,6.46
2019-03-05T03:20:39.351Z,6.51
2019-03-05T03:23:10.348Z,6.52
2019-03-05T03:25:41.121Z,6.50
2019-03-05T03:28:12.023Z,6.54
2019-03-05T03:30:42.856Z,6.51
2019-03-05T03:33:14.561Z,6.54
2019-03-05T03:35:45.663Z,6.47
2019-03-05T03:38:16.442Z,6.46
2019-03-05T03:40:47.229Z,6.46
2019-03-05T03:43:17.976Z,6.51
2019-03-05T03:45:48.773Z,6.52
2019-03-05T03:48:19.617Z,6.50
2019-03-05T03:50:50.415Z,6.49
2019-03-05T03:53:21.087Z,6.51
2019-03-05T03:55:51.879Z,6.42
2019-03-05T03:58:22.766Z,6.40
2019-03-05T04:00:53.722Z,6.48
2019-03-05T04:03:24.787Z,6.44
2019-03-05T04:05:55.525Z,6.42
2019-03-05T04:08:26.308Z,6.54
2019-03-05T04:10:57.095Z,6.36
2019-03-05T04:13:28.071Z,6.41
2019-03-05T04:15:58.726Z,6.45
2019-03-05T04:18:29.593Z,6.36
2019-03-05T04:21:00.406Z,6.28
2019-03-05T04:23:31.087Z,6.36
2019-03-05T04:26:01.875Z,6.39
2019-03-05T04:28:32.555Z,6.39
2019-03-05T04:31:03.470Z,6.41
2019-03-05T04:33:34.370Z,6.33
2019-03-05T04:36:05.303Z,6.35
2019-03-05T04:38:36.129Z,6.14
2019-03-05T04:41:06.998Z,6.18
2019-03-05T04:43:37.677Z,6.14
2019-03-05T04:46:27.453Z,6.24
2019-03-05T04:49:36.261Z,6.13
2019-03-05T04:52:13.064Z,6.04
2019-03-05T04:54:43.986Z,6.19
2019-03-05T04:57:14.825Z,6.17
2019-03-05T04:59:45.797Z,6.22
2019-03-05T05:02:16.658Z,6.15
2019-03-05T05:04:47.588Z,6.18
2019-03-05T05:07:18.436Z,6.22
2019-03-05T05:09:49.342Z,6.24
2019-03-05T05:12:20.246Z,6.37
2019-03-05T05:14:51.002Z,6.31
2019-03-05T05:17:21.778Z,6.29
2019-03-05T05:19:52.765Z,6.35
2019-03-05T05:22:23.657Z,6.35
2019-03-05T05:24:54.666Z,6.39
2019-03-05T05:27:25.465Z,6.45
2019-03-05T05:29:56.329Z,6.54
2019-03-05T05:32:27.133Z,6.57
2019-03-05T05:34:57.796Z,6.63
2019-03-05T05:37:28.489Z,6.64
2019-03-05T05:40:24.273Z,6.65
2019-03-05T05:42:54.958Z,6.65
2019-03-05T05:45:27.698Z,6.66
2019-03-05T05:47:58.533Z,6.72
2019-03-05T05:50:29.441Z,6.66
2019-03-05T05:53:00.211Z,6.64
2019-03-05T05:55:30.920Z,6.62
2019-03-05T05:58:01.686Z,6.63
2019-03-05T06:00:32.748Z,6.66
2019-03-05T06:03:03.495Z,6.66
2019-03-05T06:05:34.441Z,6.68
2019-03-05T06:08:05.334Z,6.69
2019-03-05T06:10:37.185Z,6.68
2019-03-05T06:13:08.031Z,6.66
2019-03-05T06:15:38.917Z,6.69
2019-03-05T06:18:09.844Z,6.72
2019-03-05T06:20:42.660Z,6.69
2019-03-05T06:23:13.265Z,6.67
2019-03-05T06:25:44.121Z,6.67
2019-03-05T06:28:15.055Z,6.69
2019-03-05T06:30:46.093Z,6.67
2019-03-05T06:33:17.548Z,6.71
2019-03-05T06:35:48.592Z,6.75
2019-03-05T06:38:19.475Z,6.73
2019-03-05T06:40:50.051Z,6.75
2019-03-05T06:43:20.939Z,6.74
2019-03-05T06:45:51.661Z,6.79
2019-03-05T06:48:22.443Z,6.73
2019-03-05T06:50:53.534Z,6.78
2019-03-05T06:53:24.214Z,6.80
2019-03-05T06:55:55.058Z,6.79
2019-03-05T06:58:25.926Z,6.83
2019-03-05T07:00:56.585Z,6.82
2019-03-05T07:03:27.571Z,6.85
2019-03-05T07:06:57.085Z,6.89
2019-03-05T07:10:20.503Z,6.91
2019-03-05T07:13:10.118Z,6.94
2019-03-05T07:16:09.735Z,6.99
2019-03-05T07:18:58.555Z,7.00
2019-03-05T07:22:08.492Z,7.01
2019-03-05T07:25:04.666Z,6.99
2019-03-05T07:27:40.634Z,7.05
2019-03-05T07:30:21.280Z,7.04
2019-03-05T07:32:52.546Z,7.06
2019-03-05T07:35:31.434Z,7.07
2019-03-05T07:38:02.287Z,7.10
2019-03-05T07:40:33.102Z,7.14
2019-03-05T07:43:03.983Z,7.17
2019-03-05T07:45:34.871Z,7.22
2019-03-05T07:48:05.785Z,7.29
2019-03-05T07:50:37.238Z,7.33
2019-03-05T07:53:07.902Z,7.37
2019-03-05T07:55:38.994Z,7.45
2019-03-05T07:58:09.809Z,7.44
2019-03-05T08:00:40.770Z,7.53
2019-03-05T08:03:11.489Z,7.58
2019-03-05T08:05:42.773Z,7.68
2019-03-05T08:08:49.097Z,7.74
2019-03-05T08:11:20.177Z,7.79
2019-03-05T08:14:12.785Z,7.81
2019-03-05T08:16:43.713Z,7.88
2019-03-05T08:19:14.426Z,7.90
2019-03-05T08:21:45.089Z,7.94
2019-03-05T08:24:15.969Z,7.94
2019-03-05T08:26:46.861Z,8.00
2019-03-05T08:29:17.669Z,7.98
2019-03-05T08:31:48.417Z,7.98
2019-03-05T08:34:19.030Z,7.97
2019-03-05T08:36:49.693Z,7.97
2019-03-05T08:39:20.470Z,7.97
2019-03-05T08:41:51.229Z,7.97
2019-03-05T08:44:22.065Z,8.02
2019-03-05T08:46:52.916Z,8.11
2019-03-05T08:49:23.676Z,8.24
2019-03-05T08:51:54.407Z,8.28
2019-03-05T08:54:25.190Z,8.37
2019-03-05T08:56:56.088Z,8.45
2019-03-05T08:59:26.820Z,8.33
2019-03-05T09:01:57.573Z,8.35
2019-03-05T09:04:28.352Z,8.42
2019-03-05T09:06:59.221Z,8.47
2019-03-05T09:09:30.078Z,8.60
2019-03-05T09:12:01.062Z,8.40
2019-03-05T09:14:34.363Z,8.18
2019-03-05T09:17:04.971Z,8.05
2019-03-05T09:19:35.759Z,8.04
2019-03-05T09:22:06.354Z,8.04
2019-03-05T09:24:37.845Z,8.11
2019-03-05T09:27:08.569Z,8.15
2019-03-05T09:29:39.308Z,8.25
2019-03-05T09:32:09.993Z,8.39
2019-03-05T09:34:40.873Z,8.54
2019-03-05T09:37:11.683Z,8.64
2019-03-05T09:39:42.573Z,8.78
2019-03-05T09:42:13.454Z,8.90
2019-03-05T09:44:44.220Z,8.99
2019-03-05T09:47:15.202Z,9.01
2019-03-05T09:49:45.894Z,9.17
2019-03-05T09:52:16.834Z,9.12
2019-03-05T09:54:48.329Z,9.11
2019-03-05T09:57:19.221Z,9.16
2019-03-05T09:59:49.954Z,9.17
2019-03-05T10:02:20.639Z,9.29
2019-03-05T10:04:51.522Z,9.39
2019-03-05T10:07:22.158Z,9.49
2019-03-05T10:09:52.837Z,9.50
2019-03-05T10:12:23.526Z,9.50
2019-03-05T10:14:54.358Z,9.42
2019-03-05T10:17:25.187Z,9.32
2019-03-05T10:19:55.827Z,9.27
2019-03-05T10:22:26.421Z,9.13
2019-03-05T10:25:05.617Z,9.06
2019-03-05T10:27:30.563Z,8.91
2019-03-05T10:30:01.324Z,8.85
2019-03-05T10:32:32.442Z,8.78
2019-03-05T10:35:03.241Z,8.79
2019-03-05T10:37:35.273Z,8.67
2019-03-05T10:40:06.157Z,8.49
2019-03-05T10:42:37.150Z,8.31
2019-03-05T10:45:09.146Z,8.17
2019-03-05T10:47:40.078Z,8.23
2019-03-05T10:50:15.546Z,8.34
2019-03-05T10:52:46.049Z,8.42
2019-03-05T10:55:25.999Z,8.38
2019-03-05T10:57:49.769Z,8.51
2019-03-05T11:00:28.745Z,8.62
2019-03-05T11:02:59.805Z,8.68
2019-03-05T11:05:34.374Z,8.79
2019-03-05T11:08:07.009Z,8.94
2019-03-05T11:10:38.185Z,9.13
2019-03-05T11:13:09.821Z,9.17
2019-03-05T11:15:41.669Z,9.14
2019-03-05T11:18:13.178Z,9.12
2019-03-05T11:20:43.954Z,9.18
2019-03-05T11:23:14.686Z,9.30
2019-03-05T11:25:45.466Z,9.41
2019-03-05T11:28:16.360Z,9.52
2019-03-05T11:30:47.298Z,9.62
2019-03-05T11:33:18.061Z,9.78
2019-03-05T11:35:48.969Z,9.83
2019-03-05T11:38:20.164Z,9.89
2019-03-05T11:40:51.475Z,10.06
2019-03-05T11:43:22.267Z,10.07
2019-03-05T11:45:53.218Z,10.06
2019-03-05T11:48:23.946Z,10.07
2019-03-05T11:50:54.718Z,10.06
2019-03-05T11:53:25.554Z,10.10
2019-03-05T11:55:58.176Z,10.10
2019-03-05T11:58:28.853Z,10.26
2019-03-05T12:01:09.734Z,10.28
2019-03-05T12:03:40.662Z,10.31
2019-03-05T12:06:11.730Z,10.24
2019-03-05T12:08:42.443Z,10.26
2019-03-05T12:11:13.222Z,10.31
2019-03-05T12:13:44.078Z,10.28
2019-03-05T12:16:15.852Z,10.39
2019-03-05T12:18:46.613Z,10.39
2019-03-05T12:21:17.639Z,10.30
2019-03-05T12:23:48.473Z,10.20
2019-03-05T12:26:19.259Z,10.28
2019-03-05T12:28:50.132Z,10.26
2019-03-05T12:31:20.999Z,10.28
2019-03-05T12:33:51.890Z,10.23
2019-03-05T12:36:22.852Z,10.32
2019-03-05T12:38:53.500Z,10.34
2019-03-05T12:41:24.207Z,10.48
2019-03-05T12:43:54.973Z,10.57
2019-03-05T12:46:26.631Z,10.65
2019-03-05T12:48:57.424Z,10.65
2019-03-05T12:51:28.371Z,10.55
2019-03-05T12:53:59.115Z,10.55
2019-03-05T12:56:30.898Z,10.60
2019-03-05T12:59:01.790Z,10.76
2019-03-05T13:01:34.893Z,10.78
2019-03-05T13:04:05.309Z,10.80
2019-03-05T13:06:36.089Z,10.80
2019-03-05T13:09:17.619Z,10.89
2019-03-05T13:11:46.587Z,10.89
2019-03-05T13:14:18.619Z,10.93
2019-03-05T13:16:49.466Z,10.88
2019-03-05T13:19:20.267Z,10.88
2019-03-05T13:21:51.149Z,10.94
2019-03-05T13:24:21.938Z,10.97
2019-03-05T13:26:54.379Z,11.00
2019-03-05T13:29:25.140Z,10.98
2019-03-05T13:31:56.020Z,11.07
2019-03-05T13:34:27.768Z,11.12
2019-03-05T13:37:00.829Z,10.99
2019-03-05T13:39:30.980Z,11.00
2019-03-05T13:42:01.815Z,10.97
2019-03-05T13:44:38.669Z,11.03
2019-03-05T13:47:10.223Z,11.02
2019-03-05T13:50:17.485Z,11.07
2019-03-05T13:53:34.769Z,11.01
2019-03-05T13:56:37.798Z,11.04
2019-03-05T13:59:37.983Z,11.14
2019-03-05T14:02:10.706Z,11.24
2019-03-05T14:05:12.555Z,11.37
2019-03-05T14:08:42.163Z,11.48
2019-03-05T14:11:13.214Z,11.56
2019-03-05T14:13:44.022Z,11.72
2019-03-05T14:16:16.979Z,11.82
2019-03-05T14:18:47.733Z,11.94
2019-03-05T14:21:18.603Z,11.94
2019-03-05T14:23:49.787Z,11.98
2019-03-05T14:26:20.659Z,12.08
2019-03-05T14:28:51.868Z,12.03
2019-03-05T14:31:22.668Z,12.09
2019-03-05T14:33:53.483Z,12.09
2019-03-05T14:36:24.313Z,12.26
2019-03-05T14:38:55.209Z,12.22
2019-03-05T14:41:26.272Z,12.23
2019-03-05T14:43:57.476Z,12.16
2019-03-05T14:46:28.469Z,12.08
2019-03-05T14:48:59.330Z,12.07
2019-03-05T14:51:30.148Z,12.10
2019-03-05T14:54:00.972Z,11.98
2019-03-05T14:56:31.826Z,11.93
2019-03-05T14:59:04.193Z,11.90
2019-03-05T15:01:35.042Z,11.95
2019-03-05T15:04:05.989Z,12.01
2019-03-05T15:06:36.599Z,12.12
2019-03-05T15:09:07.835Z,12.29
2019-03-05T15:11:39.014Z,12.20
2019-03-05T15:14:09.782Z,12.19
2019-03-05T15:16:41.170Z,12.21
2019-03-05T15:19:20.912Z,12.22
2019-03-05T15:21:44.538Z,12.12
2019-03-05T15:24:15.352Z,12.03
2019-03-05T15:26:46.175Z,12.02
2019-03-05T15:29:16.967Z,11.98
2019-03-05T15:31:47.684Z,12.00
2019-03-05T15:34:18.399Z,11.99
2019-03-05T15:36:51.927Z,12.09
2019-03-05T15:39:21.771Z,12.12
2019-03-05T15:41:52.458Z,12.20
2019-03-05T15:44:23.373Z,12.32
2019-03-05T15:46:54.101Z,12.29
2019-03-05T15:49:24.942Z,12.36
2019-03-05T15:51:55.534Z,12.38
2019-03-05T15:54:26.378Z,12.41
2019-03-05T15:56:57.073Z,12.41
2019-03-05T15:59:27.883Z,12.37
2019-03-05T16:01:58.586Z,12.27
2019-03-05T16:04:29.543Z,12.20
2019-03-05T16:07:00.452Z,12.13
2019-03-05T16:09:34.969Z,12.10
2019-03-05T16:12:05.932Z,12.09
2019-03-05T16:14:36.046Z,12.08
2019-03-05T16:17:06.931Z,12.02
2019-03-05T16:19:37.806Z,11.98
2019-03-05T16:22:08.404Z,11.96
2019-03-05T16:24:39.367Z,11.96
2019-03-05T16:27:10.288Z,11.97
2019-03-05T16:29:41.276Z,11.92
2019-03-05T16:32:31.055Z,11.91
2019-03-05T16:35:13.272Z,11.81
2019-03-05T16:38:08.990Z,11.82
2019-03-05T16:41:17.051Z,11.77
2019-03-05T16:44:07.979Z,11.75
2019-03-05T16:47:00.420Z,11.75
2019-03-05T16:49:45.901Z,11.67
2019-03-05T16:52:33.123Z,11.59
2019-03-05T16:55:20.855Z,11.52
2019-03-05T16:58:13.539Z,11.50
2019-03-05T17:01:03.590Z,11.50
2019-03-05T17:04:05.666Z,11.49
2019-03-05T17:07:05.063Z,11.46
2019-03-05T17:10:11.024Z,11.40
2019-03-05T17:12:42.240Z,11.51
2019-03-05T17:15:15.460Z,11.41
2019-03-05T17:17:46.475Z,11.31
2019-03-05T17:20:17.229Z,11.29
2019-03-05T17:22:48.143Z,11.29
2019-03-05T17:25:18.917Z,11.35
2019-03-05T17:27:49.938Z,11.29
2019-03-05T17:30:21.393Z,11.20
2019-03-05T17:32:52.303Z,11.18
2019-03-05T17:35:35.205Z,11.14
2019-03-05T17:38:07.876Z,11.03
2019-03-05T17:40:39.179Z,11.09
2019-03-05T17:43:10.831Z,10.97
2019-03-05T17:45:41.988Z,10.97
2019-03-05T17:48:12.878Z,10.94
2019-03-05T17:50:43.609Z,10.96
2019-03-05T17:53:14.679Z,10.93
2019-03-05T17:55:46.155Z,10.94
2019-03-05T17:58:17.286Z,10.89
2019-03-05T18:00:48.951Z,10.91
2019-03-05T18:03:20.867Z,10.97
2019-03-05T18:05:51.759Z,10.98
2019-03-05T18:08:23.517Z,10.99
2019-03-05T18:10:54.759Z,10.97
2019-03-05T18:13:25.675Z,10.96
2019-03-05T18:15:57.691Z,10.95
2019-03-05T18:18:28.598Z,10.92
2019-03-05T18:20:59.663Z,10.92
2019-03-05T18:23:30.458Z,10.81
2019-03-05T18:26:01.282Z,10.77
2019-03-05T18:28:33.433Z,10.66
2019-03-05T18:31:04.110Z,10.59
2019-03-05T18:33:35.003Z,10.56
2019-03-05T18:36:05.887Z,10.50
2019-03-05T18:38:36.919Z,10.43
2019-03-05T18:41:07.802Z,10.34
2019-03-05T18:43:38.683Z,10.33
2019-03-05T18:46:09.639Z,10.36
2019-03-05T18:48:40.422Z,10.33
2019-03-05T18:51:11.426Z,10.32
2019-03-05T18:53:42.198Z,10.34
2019-03-05T18:56:14.136Z,10.35
2019-03-05T18:58:44.946Z,10.36
2019-03-05T19:01:15.896Z,10.34
2019-03-05T19:03:46.709Z,10.34
2019-03-05T19:06:17.683Z,10.34
2019-03-05T19:08:48.554Z,10.31
2019-03-05T19:11:19.874Z,10.32
2019-03-05T19:13:50.915Z,10.35
2019-03-05T19:16:21.714Z,10.33
2019-03-05T19:18:52.512Z,10.37
2019-03-05T19:21:23.510Z,10.31
2019-03-05T19:23:54.295Z,10.26
2019-03-05T19:26:25.063Z,10.27
2019-03-05T19:28:55.992Z,10.26
2019-03-05T19:31:27.256Z,10.22
2019-03-05T19:33:57.943Z,10.18
2019-03-05T19:36:28.927Z,10.13
2019-03-05T19:38:59.745Z,10.10
2019-03-05T19:41:30.710Z,10.02
2019-03-05T19:44:01.624Z,10.04
2019-03-05T19:46:32.274Z,10.04
2019-03-05T19:49:03.162Z,10.09
2019-03-05T19:51:33.939Z,10.11
2019-03-05T19:54:05.237Z,10.08
2019-03-05T19:56:36.149Z,9.94
2019-03-05T19:59:06.919Z,9.84
2019-03-05T20:01:43.575Z,9.70
2019-03-05T20:04:14.929Z,9.68
2019-03-05T20:06:45.950Z,9.70
2019-03-05T20:09:20.814Z,9.66
2019-03-05T20:11:51.622Z,9.69
2019-03-05T20:14:22.773Z,9.73
2019-03-05T20:16:53.567Z,9.88
2019-03-05T20:19:24.359Z,9.81
2019-03-05T20:21:55.144Z,9.85
2019-03-05T20:24:25.957Z,9.80
2019-03-05T20:26:56.742Z,9.78
2019-03-05T20:29:27.833Z,9.80
2019-03-05T20:31:58.605Z,9.67
2019-03-05T20:34:29.473Z,9.55
2019-03-05T20:37:00.950Z,9.23
2019-03-05T20:39:31.950Z,9.05
2019-03-05T20:42:03.035Z,8.97
2019-03-05T20:44:33.994Z,8.85
2019-03-05T20:47:05.051Z,8.64
2019-03-05T20:49:35.959Z,8.52
2019-03-05T20:52:06.946Z,8.41
2019-03-05T20:54:38.007Z,8.32
2019-03-05T20:57:08.989Z,8.22
2019-03-05T20:59:39.991Z,8.18
2019-03-05T21:02:10.901Z,8.15
2019-03-05T21:04:41.799Z,8.15
2019-03-05T21:07:12.646Z,8.18
2019-03-05T21:09:43.541Z,8.24
2019-03-05T21:12:14.701Z,8.27
2019-03-05T21:14:45.521Z,8.36
2019-03-05T21:17:16.530Z,8.49
2019-03-05T21:19:47.432Z,8.59
2019-03-05T21:22:18.566Z,8.72
2019-03-05T21:24:50.542Z,8.75
2019-03-05T21:27:21.480Z,8.79
2019-03-05T21:29:52.370Z,8.73
2019-03-05T21:32:23.198Z,8.61
2019-03-05T21:34:53.985Z,8.46
2019-03-05T21:37:24.630Z,8.33
2019-03-05T21:39:56.685Z,8.27
2019-03-05T21:42:27.767Z,8.14
2019-03-05T21:44:58.550Z,8.02
2019-03-05T21:47:29.493Z,7.92
2019-03-05T21:50:00.379Z,7.89
2019-03-05T21:52:31.644Z,7.83
2019-03-05T21:55:02.616Z,7.79
2019-03-05T21:57:33.784Z,7.72
2019-03-05T22:00:05.278Z,7.65
2019-03-05T22:02:36.510Z,7.57
2019-03-05T22:05:07.487Z,7.52
2019-03-05T22:07:40.085Z,7.46
2019-03-05T22:10:13.536Z,7.41
2019-03-05T22:12:44.251Z,7.35
2019-03-05T22:15:16.777Z,7.44
2019-03-05T22:17:47.567Z,7.49
2019-03-05T22:20:19.193Z,7.49
2019-03-05T22:22:50.302Z,7.45
2019-03-05T22:25:21.463Z,7.48
2019-03-05T22:27:52.413Z,7.47
2019-03-05T22:30:25.257Z,7.34
2019-03-05T22:32:55.957Z,7.23
2019-03-05T22:35:26.950Z,7.22
2019-03-05T22:37:57.795Z,7.25
2019-03-05T22:40:28.793Z,7.25
2019-03-05T22:42:59.585Z,7.19
2019-03-05T22:45:30.501Z,7.21
2019-03-05T22:48:01.256Z,7.27
2019-03-05T22:50:33.473Z,7.32
2019-03-05T22:53:04.278Z,7.36
2019-03-05T22:55:35.139Z,7.37
2019-03-05T22:58:06.156Z,7.35
2019-03-05T23:01:13.007Z,7.40
2019-03-05T23:04:04.358Z,7.36
2019-03-05T23:06:35.533Z,7.32
2019-03-05T23:09:14.237Z,7.22
2019-03-05T23:11:45.833Z,7.17
2019-03-05T23:14:16.988Z,7.05
2019-03-05T23:16:49.256Z,6.93
2019-03-05T23:19:20.195Z,6.89
2019-03-05T23:21:50.897Z,6.75
2019-03-05T23:24:21.960Z,6.78
2019-03-05T23:26:53.782Z,6.68
2019-03-05T23:29:35.499Z,6.64
2019-03-05T23:32:07.313Z,6.69
2019-03-05T23:34:38.154Z,6.70
2019-03-05T23:37:09.217Z,6.55
2019-03-05T23:39:40.217Z,6.36
2019-03-05T23:42:10.999Z,6.22
2019-03-05T23:44:41.861Z,6.22
2019-03-05T23:47:12.766Z,6.18
2019-03-05T23:49:43.673Z,6.13
2019-03-05T23:52:14.574Z,6.12
2019-03-05T23:54:45.489Z,6.18
2019-03-05T23:57:16.110Z,6.23
2019-03-05T23:59:47.197Z,6.23
